Time;durP1;ratioP1;P1;durP2;ratioP2;P2;SDS_P1;SDS_P2;PMS_P1;PMS_P2;Temp;Humidity;BMP_temperature;BMP_pressure;BME280_temperature;BME280_humidity;BME280_pressure;Samples;Min_cycle;Max_cycle;Signal;HPM_P1;HPM_P2
2021/01/16 00:00:40;;;;;;;12.15;9.30;;;;;;;;;;5071170;28;20568;-37
2021/01/16 00:03:09;;;;;;;14.48;10.50;;;;;;;;;;5071222;28;20103;-37
2021/01/16 00:05:35;;;;;;;13.43;12.20;;;;;;;;;;5071193;28;20542;-36
2021/01/16 00:08:04;;;;;;;13.10;11.35;;;;;;;;;;5071459;28;20439;-37
2021/01/16 00:10:30;;;;;;;15.95;13.80;;;;;;;;;;5070945;28;20045;-36
2021/01/16 00:12:56;;;;;;;18.70;12.43;;;;;;;;;;5071554;28;20024;-36
2021/01/16 00:15:22;;;;;;;18.50;9.63;;;;;;;;;;5071258;28;20050;-38
2021/01/16 00:17:56;;;;;;;11.50;10.35;;;;;;;;;;5071475;28;20082;-37
2021/01/16 00:20:22;;;;;;;9.35;8.45;;;;;;;;;;5071715;28;20503;-39
2021/01/16 00:22:48;;;;;;;13.20;10.35;;;;;;;;;;5071133;28;20064;-38
2021/01/16 00:25:13;;;;;;;20.30;11.57;;;;;;;;;;5071138;28;20115;-36
2021/01/16 00:27:38;;;;;;;13.88;11.55;;;;;;;;;;5070682;28;20124;-36
2021/01/16 00:30:05;;;;;;;17.75;9.73;;;;;;;;;;5070893;28;20127;-36
2021/01/16 00:32:30;;;;;;;12.27;10.55;;;;;;;;;;5070808;28;20508;-37
2021/01/16 00:34:56;;;;;;;16.75;11.18;;;;;;;;;;5070514;28;20035;-36
2021/01/16 00:37:21;;;;;;;13.38;10.02;;;;;;;;;;5070514;28;20024;-36
2021/01/16 00:39:46;;;;;;;14.75;11.10;;;;;;;;;;5070119;28;20111;-36
2021/01/16 00:42:11;;;;;;;12.38;10.88;;;;;;;;;;5071160;28;20059;-36
2021/01/16 00:44:37;;;;;;;22.65;12.65;;;;;;;;;;5070083;28;20082;-36
2021/01/16 00:47:02;;;;;;;15.00;10.70;;;;;;;;;;5070876;28;20449;-37
2021/01/16 00:49:27;;;;;;;13.82;12.35;;;;;;;;;;5070150;28;20162;-36
2021/01/16 00:51:52;;;;;;;24.13;13.18;;;;;;;;;;5062364;28;20073;-38
2021/01/16 00:54:18;;;;;;;20.70;13.75;;;;;;;;;;5070911;28;20101;-37
2021/01/16 00:56:43;;;;;;;19.77;12.55;;;;;;;;;;5071031;28;20093;-37
2021/01/16 00:59:09;;;;;;;19.83;9.88;;;;;;;;;;5071186;28;20040;-36
2021/01/16 01:01:35;;;;;;;15.57;11.40;;;;;;;;;;5071766;28;20494;-37
2021/01/16 01:04:00;;;;;;;11.60;9.48;;;;;;;;;;5075210;28;20033;-38
2021/01/16 01:06:25;;;;;;;15.68;10.80;;;;;;;;;;5074891;28;20476;-38
2021/01/16 01:08:50;;;;;;;13.23;9.10;;;;;;;;;;5074748;28;20024;-37
2021/01/16 01:11:16;;;;;;;12.32;10.90;;;;;;;;;;5074336;28;20035;-36
2021/01/16 01:13:41;;;;;;;19.23;9.93;;;;;;;;;;5074850;28;20029;-36
2021/01/16 01:16:06;;;;;;;17.65;12.30;;;;;;;;;;5073948;28;20112;-40
2021/01/16 01:18:31;;;;;;;10.73;8.05;;;;;;;;;;5074691;28;20028;-37
2021/01/16 01:20:57;;;;;;;12.13;9.77;;;;;;;;;;5073087;28;20078;-36
2021/01/16 01:23:22;;;;;;;17.42;7.95;;;;;;;;;;5074563;28;20024;-37
2021/01/16 01:25:47;;;;;;;15.27;8.23;;;;;;;;;;5074316;28;20108;-37
2021/01/16 01:28:13;;;;;;;8.43;5.07;;;;;;;;;;5074232;28;20052;-40
2021/01/16 01:30:38;;;;;;;11.27;7.82;;;;;;;;;;5074271;28;20060;-36
2021/01/16 01:33:12;;;;;;;11.63;8.45;;;;;;;;;;5074008;28;20032;-38
2021/01/16 01:35:37;;;;;;;14.73;8.27;;;;;;;;;;5074322;28;20074;-39
2021/01/16 01:38:03;;;;;;;11.57;7.65;;;;;;;;;;5074360;28;20207;-37
2021/01/16 01:40:28;;;;;;;9.13;5.78;;;;;;;;;;5074174;28;20035;-38
2021/01/16 01:42:57;;;;;;;11.65;7.00;;;;;;;;;;5074320;28;20020;-36
2021/01/16 01:45:23;;;;;;;11.48;8.15;;;;;;;;;;5073966;28;20038;-37
2021/01/16 01:47:49;;;;;;;17.02;11.32;;;;;;;;;;5073581;28;20028;-37
2021/01/16 01:50:15;;;;;;;14.70;10.75;;;;;;;;;;5073852;28;20039;-36
2021/01/16 01:52:41;;;;;;;20.08;12.13;;;;;;;;;;5073833;28;20020;-37
2021/01/16 01:55:07;;;;;;;15.50;10.68;;;;;;;;;;5072826;28;20368;-37
2021/01/16 01:57:33;;;;;;;19.80;12.30;;;;;;;;;;5071719;28;20020;-36
2021/01/16 02:00:00;;;;;;;21.33;10.70;;;;;;;;;;5072634;28;20029;-36
2021/01/16 02:02:26;;;;;;;12.68;8.55;;;;;;;;;;5071970;28;20369;-39
2021/01/16 02:04:52;;;;;;;15.07;9.52;;;;;;;;;;5073914;28;20031;-35
2021/01/16 02:07:21;;;;;;;10.27;9.23;;;;;;;;;;5072647;28;20124;-41
2021/01/16 02:09:47;;;;;;;10.27;9.25;;;;;;;;;;5073380;28;20033;-36
2021/01/16 02:12:12;;;;;;;16.13;10.55;;;;;;;;;;5065693;28;20020;-36
2021/01/16 02:14:39;;;;;;;16.83;11.75;;;;;;;;;;5072759;28;20423;-37
2021/01/16 02:17:04;;;;;;;12.95;9.13;;;;;;;;;;5066105;28;20104;-37
2021/01/16 02:20:05;;;;;;;6.57;5.43;;;;;;;;;;5073695;28;20118;-38
2021/01/16 02:22:34;;;;;;;13.68;7.07;;;;;;;;;;5030677;28;20033;-38
2021/01/16 02:25:10;;;;;;;9.43;6.30;;;;;;;;;;5062266;28;20124;-37
2021/01/16 02:27:41;;;;;;;5.97;5.00;;;;;;;;;;5073054;28;20040;-36
2021/01/16 02:30:07;;;;;;;12.30;4.57;;;;;;;;;;5073138;28;20036;-36
2021/01/16 02:32:34;;;;;;;9.02;6.53;;;;;;;;;;5073282;28;20350;-38
2021/01/16 02:35:01;;;;;;;16.95;5.20;;;;;;;;;;5072060;28;20426;-36
2021/01/16 02:37:53;;;;;;;10.50;7.13;;;;;;;;;;5072889;28;20048;-39
2021/01/16 02:40:28;;;;;;;10.00;6.57;;;;;;;;;;5068463;28;20401;-37
2021/01/16 02:43:12;;;;;;;21.95;7.13;;;;;;;;;;5065437;28;20374;-36
2021/01/16 02:45:41;;;;;;;9.68;7.03;;;;;;;;;;5072935;28;20024;-36
2021/01/16 02:48:30;;;;;;;9.52;5.55;;;;;;;;;;5072946;28;20025;-36
2021/01/16 02:50:56;;;;;;;20.67;6.10;;;;;;;;;;5065232;28;20123;-39
2021/01/16 02:53:22;;;;;;;13.88;8.57;;;;;;;;;;5072821;28;20016;-36
2021/01/16 02:55:49;;;;;;;24.75;9.48;;;;;;;;;;5072873;28;20067;-38
2021/01/16 02:58:15;;;;;;;17.48;9.30;;;;;;;;;;5072830;28;20021;-37
2021/01/16 03:00:40;;;;;;;20.02;9.90;;;;;;;;;;5072444;28;20037;-36
2021/01/16 03:03:05;;;;;;;10.82;7.55;;;;;;;;;;5072841;28;20028;-36
2021/01/16 03:05:31;;;;;;;15.38;8.10;;;;;;;;;;5072749;28;20074;-37
2021/01/16 03:07:58;;;;;;;8.13;7.18;;;;;;;;;;5072902;28;20025;-35
2021/01/16 03:10:23;;;;;;;12.38;8.07;;;;;;;;;;5071944;28;20051;-36
2021/01/16 03:12:48;;;;;;;12.85;7.72;;;;;;;;;;5072531;28;20029;-35
2021/01/16 03:15:15;;;;;;;8.90;6.93;;;;;;;;;;5072223;28;20778;-36
2021/01/16 03:17:49;;;;;;;11.73;5.90;;;;;;;;;;5071821;28;20054;-35
2021/01/16 03:20:18;;;;;;;9.38;5.18;;;;;;;;;;5072349;28;20051;-39
2021/01/16 03:22:43;;;;;;;10.32;5.65;;;;;;;;;;5072016;28;20029;-36
2021/01/16 03:25:09;;;;;;;14.43;6.15;;;;;;;;;;5072066;28;20373;-36
2021/01/16 03:27:34;;;;;;;9.80;6.57;;;;;;;;;;5071110;28;20141;-35
2021/01/16 03:30:00;;;;;;;9.23;6.85;;;;;;;;;;5070935;28;20039;-36
2021/01/16 03:32:25;;;;;;;9.50;5.97;;;;;;;;;;5071699;28;20053;-36
2021/01/16 03:34:50;;;;;;;6.22;3.72;;;;;;;;;;5071776;28;20079;-36
2021/01/16 03:37:16;;;;;;;6.35;3.53;;;;;;;;;;5071731;28;20024;-36
2021/01/16 03:39:41;;;;;;;6.05;3.28;;;;;;;;;;5071807;28;20396;-36
2021/01/16 03:42:07;;;;;;;24.85;4.85;;;;;;;;;;5071776;28;20020;-39
2021/01/16 03:44:33;;;;;;;6.72;3.55;;;;;;;;;;5071803;28;20035;-36
2021/01/16 03:46:58;;;;;;;6.38;3.90;;;;;;;;;;5071481;28;20024;-36
2021/01/16 03:49:23;;;;;;;8.75;4.05;;;;;;;;;;5071983;28;20043;-37
2021/01/16 03:51:49;;;;;;;6.38;5.45;;;;;;;;;;5069354;28;20032;-36
2021/01/16 03:54:14;;;;;;;10.13;4.35;;;;;;;;;;5071780;28;20030;-35
2021/01/16 03:56:39;;;;;;;11.35;5.25;;;;;;;;;;5071307;28;20028;-37
2021/01/16 03:59:05;;;;;;;14.15;4.53;;;;;;;;;;5071857;28;20070;-37
2021/01/16 04:01:31;;;;;;;8.70;4.30;;;;;;;;;;5071761;28;20028;-37
2021/01/16 04:03:56;;;;;;;8.10;5.85;;;;;;;;;;5071658;28;20021;-36
2021/01/16 04:06:21;;;;;;;10.10;5.55;;;;;;;;;;5071463;28;20132;-37
2021/01/16 04:08:47;;;;;;;13.20;6.70;;;;;;;;;;5071280;28;20044;-37
2021/01/16 04:11:12;;;;;;;14.07;6.45;;;;;;;;;;5070995;28;20028;-36
2021/01/16 04:13:38;;;;;;;10.57;6.13;;;;;;;;;;5071379;28;20420;-36
2021/01/16 04:16:04;;;;;;;6.18;3.88;;;;;;;;;;5071193;28;20039;-39
2021/01/16 04:18:29;;;;;;;8.20;5.13;;;;;;;;;;5071291;28;20029;-36
2021/01/16 04:20:55;;;;;;;13.90;4.75;;;;;;;;;;5071382;28;20037;-36
2021/01/16 04:23:20;;;;;;;4.03;3.03;;;;;;;;;;5071344;28;20132;-37
2021/01/16 04:25:45;;;;;;;4.68;4.03;;;;;;;;;;5070948;28;20496;-38
2021/01/16 04:28:11;;;;;;;7.05;5.35;;;;;;;;;;5071014;28;20059;-36
2021/01/16 04:30:36;;;;;;;6.93;4.30;;;;;;;;;;5071063;28;20036;-36
2021/01/16 04:33:02;;;;;;;6.65;3.55;;;;;;;;;;5071497;28;20044;-36
2021/01/16 04:35:27;;;;;;;21.08;6.65;;;;;;;;;;5071193;28;20074;-39
2021/01/16 04:37:52;;;;;;;7.22;5.90;;;;;;;;;;5070535;28;20056;-38
2021/01/16 04:40:18;;;;;;;9.68;4.05;;;;;;;;;;5070973;28;20036;-39
2021/01/16 04:42:44;;;;;;;10.77;3.75;;;;;;;;;;5071052;28;20434;-36
2021/01/16 04:45:11;;;;;;;5.47;3.75;;;;;;;;;;5069672;28;20041;-36
2021/01/16 04:47:36;;;;;;;5.85;3.58;;;;;;;;;;5070276;28;20017;-35
2021/01/16 04:50:02;;;;;;;17.75;5.78;;;;;;;;;;5070755;28;20036;-37
2021/01/16 04:52:28;;;;;;;7.10;6.30;;;;;;;;;;5070564;28;20024;-36
2021/01/16 04:54:54;;;;;;;15.07;8.10;;;;;;;;;;5078753;28;20059;-37
2021/01/16 04:57:21;;;;;;;10.27;5.90;;;;;;;;;;5070744;28;20377;-37
2021/01/16 04:59:47;;;;;;;8.43;5.93;;;;;;;;;;5070592;28;20037;-37
2021/01/16 05:02:13;;;;;;;5.95;4.63;;;;;;;;;;5070797;28;20029;-36
2021/01/16 05:04:39;;;;;;;6.15;5.32;;;;;;;;;;5069903;28;20082;-36
2021/01/16 05:07:05;;;;;;;9.88;6.22;;;;;;;;;;5070379;28;20127;-36
2021/01/16 05:09:33;;;;;;;5.85;5.22;;;;;;;;;;5070689;28;20400;-41
2021/01/16 05:12:01;;;;;;;9.30;5.57;;;;;;;;;;5070559;28;20078;-36
2021/01/16 05:14:35;;;;;;;5.03;3.75;;;;;;;;;;5070449;28;20032;-36
2021/01/16 05:17:01;;;;;;;9.40;7.60;;;;;;;;;;5063776;28;20028;-37
2021/01/16 05:19:27;;;;;;;13.20;8.10;;;;;;;;;;5070457;28;20036;-35
2021/01/16 05:21:56;;;;;;;9.45;8.10;;;;;;;;;;5069781;28;20017;-35
2021/01/16 05:24:21;;;;;;;10.95;5.75;;;;;;;;;;5070726;28;20028;-36
2021/01/16 05:26:55;;;;;;;8.65;6.07;;;;;;;;;;5070591;28;20468;-36
2021/01/16 05:29:24;;;;;;;12.32;8.52;;;;;;;;;;5070556;28;20052;-36
2021/01/16 05:31:51;;;;;;;9.88;6.95;;;;;;;;;;5070176;28;20025;-35
2021/01/16 05:34:16;;;;;;;11.98;7.82;;;;;;;;;;5070761;28;20025;-37
2021/01/16 05:36:49;;;;;;;9.02;7.68;;;;;;;;;;5070134;28;20032;-36
2021/01/16 05:39:15;;;;;;;13.35;5.45;;;;;;;;;;5070189;28;20034;-36
2021/01/16 05:41:41;;;;;;;6.75;5.18;;;;;;;;;;5070198;28;20114;-35
2021/01/16 05:44:07;;;;;;;7.43;6.70;;;;;;;;;;5070769;28;20016;-36
2021/01/16 05:46:33;;;;;;;9.73;4.97;;;;;;;;;;5070185;28;20104;-36
2021/01/16 05:48:58;;;;;;;7.35;5.65;;;;;;;;;;5071975;28;20103;-36
2021/01/16 05:51:24;;;;;;;7.65;6.85;;;;;;;;;;5074394;28;20025;-37
2021/01/16 05:53:49;;;;;;;6.10;5.40;;;;;;;;;;5073264;28;20036;-36
2021/01/16 05:56:15;;;;;;;18.83;6.15;;;;;;;;;;5073532;28;20040;-37
2021/01/16 05:58:42;;;;;;;13.98;8.75;;;;;;;;;;5073972;28;20036;-37
2021/01/16 06:01:08;;;;;;;20.08;12.20;;;;;;;;;;5073703;28;20469;-35
2021/01/16 06:03:34;;;;;;;18.38;12.15;;;;;;;;;;5073843;28;20031;-36
2021/01/16 06:05:59;;;;;;;25.27;10.73;;;;;;;;;;5074072;28;20056;-35
2021/01/16 06:08:24;;;;;;;10.32;8.93;;;;;;;;;;5073911;28;20070;-37
2021/01/16 06:10:52;;;;;;;15.57;9.25;;;;;;;;;;5073138;28;20085;-36
2021/01/16 06:13:19;;;;;;;10.05;7.63;;;;;;;;;;5073568;28;20040;-37
2021/01/16 06:15:46;;;;;;;9.95;8.38;;;;;;;;;;5073505;28;20067;-37
2021/01/16 06:18:34;;;;;;;7.93;6.70;;;;;;;;;;5073182;28;20441;-35
2021/01/16 06:21:00;;;;;;;11.45;8.32;;;;;;;;;;5073078;28;20123;-35
2021/01/16 06:23:25;;;;;;;9.98;6.80;;;;;;;;;;5073602;28;20104;-36
2021/01/16 06:25:55;;;;;;;7.38;6.65;;;;;;;;;;5072927;28;20021;-36
2021/01/16 06:28:25;;;;;;;13.57;7.38;;;;;;;;;;5072900;28;20700;-36
2021/01/16 06:30:55;;;;;;;10.55;7.82;;;;;;;;;;5072743;28;20044;-36
2021/01/16 06:33:22;;;;;;;12.50;8.35;;;;;;;;;;5073052;28;20036;-36
2021/01/16 06:35:55;;;;;;;11.00;8.82;;;;;;;;;;5072875;28;20032;-36
2021/01/16 06:38:27;;;;;;;12.25;8.23;;;;;;;;;;5073131;28;20111;-36
2021/01/16 06:40:53;;;;;;;9.60;8.20;;;;;;;;;;5072570;28;20062;-36
2021/01/16 06:43:20;;;;;;;9.18;6.93;;;;;;;;;;5072909;28;20369;-40
2021/01/16 06:45:46;;;;;;;8.10;7.13;;;;;;;;;;5072972;28;20089;-36
2021/01/16 06:48:13;;;;;;;9.52;7.22;;;;;;;;;;5073081;28;20517;-35
2021/01/16 06:50:38;;;;;;;11.00;8.15;;;;;;;;;;5072855;28;20039;-36
2021/01/16 06:53:03;;;;;;;14.90;10.27;;;;;;;;;;5072210;28;20024;-37
2021/01/16 06:55:31;;;;;;;15.43;10.25;;;;;;;;;;5071528;28;20032;-42
2021/01/16 06:57:56;;;;;;;13.70;9.80;;;;;;;;;;5072862;28;20028;-38
2021/01/16 07:00:22;;;;;;;11.15;8.90;;;;;;;;;;5072352;28;20595;-36
2021/01/16 07:02:48;;;;;;;13.98;10.63;;;;;;;;;;5072726;28;20021;-37
2021/01/16 07:05:16;;;;;;;11.13;9.18;;;;;;;;;;5071422;28;20082;-36
2021/01/16 07:07:45;;;;;;;13.35;8.68;;;;;;;;;;5072709;28;20051;-35
2021/01/16 07:10:10;;;;;;;18.23;11.90;;;;;;;;;;5072456;28;20106;-37
2021/01/16 07:12:36;;;;;;;14.43;9.50;;;;;;;;;;5071757;28;20460;-35
2021/01/16 07:15:05;;;;;;;13.57;7.97;;;;;;;;;;5071247;28;20103;-36
2021/01/16 07:17:31;;;;;;;11.50;8.90;;;;;;;;;;5072319;28;20027;-38
2021/01/16 07:19:56;;;;;;;9.70;8.70;;;;;;;;;;5072213;28;20032;-36
2021/01/16 07:22:32;;;;;;;9.38;8.43;;;;;;;;;;5071953;28;20410;-36
2021/01/16 07:24:58;;;;;;;19.48;9.13;;;;;;;;;;5064660;28;20028;-36
2021/01/16 07:27:25;;;;;;;12.43;11.13;;;;;;;;;;5071669;28;20035;-41
2021/01/16 07:29:50;;;;;;;14.50;10.77;;;;;;;;;;5071802;28;20032;-36
2021/01/16 07:32:16;;;;;;;841.25;750.38;;;;;;;;;;5071707;28;20024;-37
2021/01/16 07:34:42;;;;;;;95.47;86.70;;;;;;;;;;5071694;28;20040;-36
2021/01/16 07:37:09;;;;;;;12.55;10.52;;;;;;;;;;5071431;28;20410;-36
2021/01/16 07:39:37;;;;;;;22.25;14.27;;;;;;;;;;5071437;28;20116;-37
2021/01/16 07:42:04;;;;;;;16.40;12.15;;;;;;;;;;5071234;28;20036;-43
2021/01/16 07:44:31;;;;;;;27.55;23.13;;;;;;;;;;5066857;28;20040;-38
2021/01/16 07:46:59;;;;;;;34.55;19.10;;;;;;;;;;5071189;28;20099;-37
2021/01/16 07:49:26;;;;;;;31.08;18.30;;;;;;;;;;5071546;28;20135;-37
2021/01/16 07:51:54;;;;;;;29.98;19.17;;;;;;;;;;5070171;28;20051;-37
2021/01/16 07:54:21;;;;;;;26.85;17.17;;;;;;;;;;5085622;28;20028;-39
2021/01/16 07:56:50;;;;;;;19.40;13.20;;;;;;;;;;5071566;28;20032;-43
2021/01/16 07:59:15;;;;;;;16.80;12.38;;;;;;;;;;5068886;28;20032;-40
2021/01/16 08:01:40;;;;;;;25.75;16.75;;;;;;;;;;5070349;28;20039;-37
2021/01/16 08:04:08;;;;;;;23.60;15.18;;;;;;;;;;5071355;28;20376;-37
2021/01/16 08:06:40;;;;;;;28.38;13.52;;;;;;;;;;5070818;28;20434;-42
2021/01/16 08:09:06;;;;;;;17.70;12.20;;;;;;;;;;5071346;28;20115;-37
2021/01/16 08:11:32;;;;;;;26.23;16.70;;;;;;;;;;5070081;28;20104;-38
2021/01/16 08:14:02;;;;;;;19.92;16.10;;;;;;;;;;5071620;28;20132;-37
2021/01/16 08:16:27;;;;;;;18.38;16.48;;;;;;;;;;5054500;28;20040;-43
2021/01/16 08:19:05;;;;;;;41.25;25.95;;;;;;;;;;5064794;28;20099;-42
2021/01/16 08:21:30;;;;;;;49.92;26.17;;;;;;;;;;5063413;28;20036;-42
2021/01/16 08:23:56;;;;;;;39.50;35.38;;;;;;;;;;5064910;28;20028;-43
2021/01/16 08:26:22;;;;;;;26.73;16.80;;;;;;;;;;5064400;28;20507;-40
2021/01/16 08:28:48;;;;;;;23.27;18.80;;;;;;;;;;5064380;28;20064;-42
2021/01/16 08:31:23;;;;;;;39.33;33.13;;;;;;;;;;5062854;28;20047;-40
2021/01/16 08:33:49;;;;;;;25.00;22.02;;;;;;;;;;5064165;28;20723;-39
2021/01/16 08:36:19;;;;;;;39.22;28.20;;;;;;;;;;5064790;28;20043;-40
2021/01/16 08:38:45;;;;;;;36.13;23.98;;;;;;;;;;5065165;28;20029;-41
2021/01/16 08:41:10;;;;;;;27.77;22.27;;;;;;;;;;5064296;28;20032;-44
2021/01/16 08:43:39;;;;;;;31.95;22.73;;;;;;;;;;5064350;28;20028;-42
2021/01/16 08:46:09;;;;;;;32.15;21.35;;;;;;;;;;5063854;28;20024;-40
2021/01/16 08:48:35;;;;;;;26.50;20.75;;;;;;;;;;5064823;28;20640;-42
2021/01/16 08:51:00;;;;;;;24.55;20.73;;;;;;;;;;5065190;28;20529;-40
2021/01/16 08:53:26;;;;;;;28.20;20.85;;;;;;;;;;5068947;28;20475;-40
2021/01/16 08:55:52;;;;;;;17.67;15.90;;;;;;;;;;5068893;28;20471;-58
2021/01/16 08:58:17;;;;;;;20.13;16.85;;;;;;;;;;5070124;28;20032;-55
2021/01/16 09:00:42;;;;;;;28.25;21.23;;;;;;;;;;5070978;28;20083;-49
2021/01/16 09:03:08;;;;;;;34.75;26.33;;;;;;;;;;5070981;28;20365;-56
2021/01/16 09:05:33;;;;;;;40.67;25.25;;;;;;;;;;5070471;28;20812;-58
2021/01/16 09:07:59;;;;;;;35.50;30.15;;;;;;;;;;5066537;28;20024;-56
2021/01/16 09:10:25;;;;;;;37.90;30.08;;;;;;;;;;5067236;28;20043;-52
2021/01/16 09:12:51;;;;;;;42.15;28.40;;;;;;;;;;5065572;28;20036;-57
2021/01/16 09:15:42;;;;;;;55.15;30.67;;;;;;;;;;5066905;28;20485;-55
2021/01/16 09:18:10;;;;;;;31.10;26.08;;;;;;;;;;5067068;28;20035;-53
2021/01/16 09:20:40;;;;;;;27.85;23.48;;;;;;;;;;5065177;28;20040;-54
2021/01/16 09:23:25;;;;;;;31.70;24.48;;;;;;;;;;5067261;28;20045;-54
2021/01/16 09:25:52;;;;;;;36.22;29.27;;;;;;;;;;5072136;28;20023;-56
2021/01/16 09:28:37;;;;;;;32.63;28.55;;;;;;;;;;5073198;28;20044;-58
2021/01/16 09:31:14;;;;;;;38.38;21.65;;;;;;;;;;5073331;28;20029;-55
2021/01/16 09:33:42;;;;;;;20.77;11.05;;;;;;;;;;5074721;28;20036;-55
2021/01/16 09:36:07;;;;;;;17.27;11.77;;;;;;;;;;5073220;28;20078;-55
2021/01/16 09:38:33;;;;;;;22.50;19.55;;;;;;;;;;5074033;28;20025;-54
2021/01/16 09:40:58;;;;;;;38.63;28.50;;;;;;;;;;5074337;28;20082;-52
2021/01/16 09:43:26;;;;;;;45.60;30.23;;;;;;;;;;5074262;28;20029;-56
2021/01/16 09:45:55;;;;;;;38.10;25.63;;;;;;;;;;5061203;28;20123;-53
2021/01/16 09:48:30;;;;;;;31.65;26.77;;;;;;;;;;5069885;28;20032;-54
2021/01/16 09:50:55;;;;;;;230.43;148.35;;;;;;;;;;5065477;28;20036;-56
2021/01/16 09:53:21;;;;;;;36.53;25.50;;;;;;;;;;5064913;28;20087;-52
2021/01/16 09:55:48;;;;;;;19.33;13.82;;;;;;;;;;5073512;28;20020;-57
2021/01/16 09:58:35;;;;;;;14.30;11.48;;;;;;;;;;5071788;28;20477;-53
2021/01/16 10:01:21;;;;;;;20.88;15.55;;;;;;;;;;5070530;28;20031;-50
2021/01/16 10:03:47;;;;;;;74.90;46.50;;;;;;;;;;5073929;28;20464;-54
2021/01/16 10:06:19;;;;;;;38.53;24.80;;;;;;;;;;5073564;28;20054;-55
2021/01/16 10:08:47;;;;;;;131.23;112.88;;;;;;;;;;5072793;28;20530;-55
2021/01/16 10:11:33;;;;;;;18.48;15.10;;;;;;;;;;5073686;28;20078;-51
2021/01/16 10:14:10;;;;;;;13.27;8.57;;;;;;;;;;5062676;28;20061;-58
2021/01/16 10:16:37;;;;;;;21.02;13.65;;;;;;;;;;5072335;28;20025;-57
2021/01/16 10:19:04;;;;;;;16.58;13.13;;;;;;;;;;5073891;28;20021;-57
2021/01/16 10:21:30;;;;;;;20.42;12.57;;;;;;;;;;5073380;28;20044;-55
2021/01/16 10:23:57;;;;;;;20.45;11.27;;;;;;;;;;5063319;28;20045;-52
2021/01/16 10:26:23;;;;;;;5.90;4.20;;;;;;;;;;5069376;28;20023;-53
2021/01/16 10:28:48;;;;;;;57.85;43.65;;;;;;;;;;5088239;28;20053;-54
2021/01/16 10:31:13;;;;;;;28.67;20.83;;;;;;;;;;5071489;28;20071;-56
2021/01/16 10:33:39;;;;;;;9.18;8.25;;;;;;;;;;5072997;28;20094;-55
2021/01/16 10:36:05;;;;;;;19.20;11.77;;;;;;;;;;5072770;28;20033;-56
2021/01/16 10:38:39;;;;;;;21.63;7.43;;;;;;;;;;5072677;28;20016;-55
2021/01/16 10:41:05;;;;;;;14.43;10.48;;;;;;;;;;5073524;28;20033;-55
2021/01/16 10:43:32;;;;;;;11.50;7.25;;;;;;;;;;5071786;28;20453;-56
2021/01/16 10:46:09;;;;;;;23.83;10.80;;;;;;;;;;5073047;28;20052;-52
2021/01/16 10:48:39;;;;;;;16.40;9.20;;;;;;;;;;5072823;28;20028;-55
2021/01/16 10:51:05;;;;;;;18.60;9.75;;;;;;;;;;5072844;28;20024;-54
2021/01/16 10:53:35;;;;;;;15.93;8.75;;;;;;;;;;5072857;28;20032;-58
2021/01/16 10:56:06;;;;;;;9.82;6.13;;;;;;;;;;5071635;28;20500;-57
2021/01/16 10:58:32;;;;;;;7.18;5.95;;;;;;;;;;5072757;28;20028;-55
2021/01/16 11:00:58;;;;;;;20.08;12.38;;;;;;;;;;5072423;28;20534;-56
2021/01/16 11:03:31;;;;;;;10.65;8.85;;;;;;;;;;5072266;28;20031;-58
2021/01/16 11:06:06;;;;;;;12.23;9.13;;;;;;;;;;5072323;28;20063;-54
2021/01/16 11:08:33;;;;;;;17.27;13.43;;;;;;;;;;5072347;28;20037;-57
2021/01/16 11:10:59;;;;;;;5.30;4.72;;;;;;;;;;5071366;28;20028;-53
2021/01/16 11:13:27;;;;;;;20.30;11.80;;;;;;;;;;5070448;28;20477;-55
2021/01/16 11:16:13;;;;;;;38.78;34.80;;;;;;;;;;5072084;28;20102;-57
2021/01/16 11:18:38;;;;;;;20.95;18.55;;;;;;;;;;5071396;28;20432;-56
2021/01/16 11:21:05;;;;;;;22.63;16.58;;;;;;;;;;5072384;28;20029;-57
2021/01/16 11:23:47;;;;;;;12.05;8.05;;;;;;;;;;5070495;28;20024;-55
2021/01/16 11:26:16;;;;;;;15.85;5.40;;;;;;;;;;5072397;28;20052;-56
2021/01/16 11:28:47;;;;;;;17.10;13.55;;;;;;;;;;5069929;28;20056;-50
2021/01/16 11:31:12;;;;;;;;;;;;;;;;;;5072455;28;20024;-54
2021/01/16 11:33:42;;;;;;;15.53;12.03;;;;;;;;;;5071989;28;20270;-54
2021/01/16 11:36:07;;;;;;;15.98;9.15;;;;;;;;;;5071883;28;20016;-50
2021/01/16 11:38:41;;;;;;;10.45;7.75;;;;;;;;;;5071666;28;20043;-54
2021/01/16 11:41:06;;;;;;;16.13;14.48;;;;;;;;;;5071262;28;20033;-56
2021/01/16 11:43:32;;;;;;;11.93;6.30;;;;;;;;;;5072142;28;20105;-55
2021/01/16 11:46:01;;;;;;;14.57;7.35;;;;;;;;;;5070559;28;20575;-56
2021/01/16 11:48:29;;;;;;;7.65;6.82;;;;;;;;;;5063499;28;20032;-50
2021/01/16 11:50:54;;;;;;;18.73;6.97;;;;;;;;;;5056125;28;20024;-56
2021/01/16 11:53:20;;;;;;;11.77;5.60;;;;;;;;;;5070324;28;20124;-52
2021/01/16 11:55:45;;;;;;;8.25;4.82;;;;;;;;;;5068796;28;20086;-49
2021/01/16 11:58:10;;;;;;;15.63;9.13;;;;;;;;;;5067648;28;20508;-50
2021/01/16 12:00:36;;;;;;;23.48;19.83;;;;;;;;;;5068803;28;20028;-50
2021/01/16 12:03:01;;;;;;;9.43;8.43;;;;;;;;;;5070417;28;20098;-56
2021/01/16 12:05:26;;;;;;;8.32;5.28;;;;;;;;;;5075165;28;20035;-53
2021/01/16 12:07:52;;;;;;;18.00;12.38;;;;;;;;;;5066236;28;20077;-53
2021/01/16 12:10:25;;;;;;;13.77;9.13;;;;;;;;;;5069612;28;20078;-56
2021/01/16 12:12:51;;;;;;;17.65;4.60;;;;;;;;;;5066787;28;20466;-58
2021/01/16 12:15:18;;;;;;;17.73;13.90;;;;;;;;;;5068934;28;20099;-56
2021/01/16 12:17:47;;;;;;;7.25;6.53;;;;;;;;;;5069631;28;20033;-58
2021/01/16 12:20:13;;;;;;;14.45;6.28;;;;;;;;;;5068063;28;20024;-57
2021/01/16 12:22:40;;;;;;;13.65;4.80;;;;;;;;;;5070913;28;20071;-57
2021/01/16 12:25:08;;;;;;;12.07;4.57;;;;;;;;;;5071256;28;20025;-57
2021/01/16 12:27:36;;;;;;;6.38;5.60;;;;;;;;;;5070352;28;20045;-57
2021/01/16 12:30:01;;;;;;;41.65;37.60;;;;;;;;;;5071221;28;20111;-58
2021/01/16 12:32:26;;;;;;;13.05;5.35;;;;;;;;;;5071117;28;20115;-57
2021/01/16 12:34:55;;;;;;;11.45;3.85;;;;;;;;;;5067912;28;20410;-59
2021/01/16 12:37:28;;;;;;;4.75;2.97;;;;;;;;;;5083261;28;20045;-58
2021/01/16 12:39:54;;;;;;;19.70;5.43;;;;;;;;;;5071162;28;20032;-55
2021/01/16 12:42:20;;;;;;;3.58;2.10;;;;;;;;;;5070448;28;20111;-55
2021/01/16 12:44:45;;;;;;;7.38;2.97;;;;;;;;;;5070642;28;20036;-55
2021/01/16 12:47:17;;;;;;;2.25;1.23;;;;;;;;;;5070715;28;20380;-55
2021/01/16 12:49:47;;;;;;;3.35;2.17;;;;;;;;;;5071037;28;20065;-54
2021/01/16 12:52:12;;;;;;;10.85;4.03;;;;;;;;;;5070826;28;20028;-53
2021/01/16 12:54:37;;;;;;;16.02;10.52;;;;;;;;;;5063283;28;20021;-52
2021/01/16 12:57:03;;;;;;;11.32;5.15;;;;;;;;;;5064347;28;20468;-54
2021/01/16 12:59:28;;;;;;;5.25;2.40;;;;;;;;;;5073241;28;20025;-54
2021/01/16 13:01:53;;;;;;;18.15;4.57;;;;;;;;;;5070573;28;20033;-53
2021/01/16 13:04:19;;;;;;;8.10;4.03;;;;;;;;;;5068764;28;20155;-53
2021/01/16 13:06:46;;;;;;;12.57;4.55;;;;;;;;;;5073636;28;20299;-54
2021/01/16 13:09:13;;;;;;;12.00;5.40;;;;;;;;;;5073259;28;20107;-49
2021/01/16 13:11:39;;;;;;;7.32;5.50;;;;;;;;;;5070014;28;20029;-56
2021/01/16 13:14:04;;;;;;;12.30;3.58;;;;;;;;;;5073762;28;20460;-54
2021/01/16 13:16:42;;;;;;;7.95;3.88;;;;;;;;;;5073652;28;20060;-52
2021/01/16 13:19:07;;;;;;;9.27;2.55;;;;;;;;;;5074943;28;20125;-53
2021/01/16 13:21:32;;;;;;;10.27;2.22;;;;;;;;;;5074310;28;20056;-57
2021/01/16 13:23:58;;;;;;;8.65;6.55;;;;;;;;;;5073844;28;20037;-50
2021/01/16 13:26:24;;;;;;;6.57;2.80;;;;;;;;;;5074439;28;20457;-54
2021/01/16 13:28:52;;;;;;;17.55;6.32;;;;;;;;;;5074290;28;20064;-52
2021/01/16 13:31:21;;;;;;;6.50;2.70;;;;;;;;;;5073518;28;20433;-48
2021/01/16 13:33:47;;;;;;;11.15;4.35;;;;;;;;;;5074360;28;20037;-54
2021/01/16 13:36:14;;;;;;;14.10;10.40;;;;;;;;;;5074909;28;20020;-49
2021/01/16 13:38:40;;;;;;;9.73;4.82;;;;;;;;;;5074221;28;20399;-55
2021/01/16 13:41:05;;;;;;;10.88;4.00;;;;;;;;;;5074300;28;20082;-49
2021/01/16 13:43:30;;;;;;;11.93;4.28;;;;;;;;;;5072989;28;20074;-48
2021/01/16 13:45:56;;;;;;;9.57;3.53;;;;;;;;;;5073564;28;20024;-48
2021/01/16 13:48:23;;;;;;;11.60;4.00;;;;;;;;;;5073934;28;20028;-48
2021/01/16 13:50:48;;;;;;;9.38;4.93;;;;;;;;;;5073929;28;20025;-51
2021/01/16 13:53:13;;;;;;;5.47;3.53;;;;;;;;;;5073884;28;20032;-49
2021/01/16 13:55:40;;;;;;;13.00;4.45;;;;;;;;;;5072647;28;20028;-51
2021/01/16 13:58:12;;;;;;;27.45;3.65;;;;;;;;;;5073503;28;20051;-53
2021/01/16 14:00:49;;;;;;;13.48;5.45;;;;;;;;;;5072652;28;20028;-52
2021/01/16 14:03:23;;;;;;;5.88;3.13;;;;;;;;;;5073604;28;20082;-48
2021/01/16 14:05:56;;;;;;;9.57;4.93;;;;;;;;;;5073086;28;20031;-54
2021/01/16 14:08:21;;;;;;;7.00;4.47;;;;;;;;;;5073236;28;20040;-48
2021/01/16 14:10:47;;;;;;;21.25;7.18;;;;;;;;;;5071756;28;20404;-47
2021/01/16 14:13:13;;;;;;;9.55;4.47;;;;;;;;;;5073604;28;20350;-53
2021/01/16 14:15:57;;;;;;;4.82;3.03;;;;;;;;;;5073139;28;20028;-52
2021/01/16 14:18:26;;;;;;;8.90;3.60;;;;;;;;;;5073105;28;20029;-55
2021/01/16 14:20:51;;;;;;;5.95;5.40;;;;;;;;;;5072633;28;20032;-55
2021/01/16 14:23:33;;;;;;;15.00;4.68;;;;;;;;;;5072956;28;20033;-55
2021/01/16 14:26:17;;;;;;;13.85;4.70;;;;;;;;;;5082177;28;20024;-60
2021/01/16 14:28:43;;;;;;;8.10;5.85;;;;;;;;;;5069142;28;20052;-54
2021/01/16 14:31:15;;;;;;;7.88;5.80;;;;;;;;;;5073069;28;20052;-51